sensor_id;sensor_type;location;lat;lon;timestamp;pressure;altitude;pressure_sealevel;temperature
11926;BMP180;6022;48.768;18.608;2023-06-26T00:01:49;98391.38;;;17.48
11926;BMP180;6022;48.768;18.608;2023-06-26T00:04:17;98405.41;;;17.44
11926;BMP180;6022;48.768;18.608;2023-06-26T00:06:46;98404.06;;;17.40
11926;BMP180;6022;48.768;18.608;2023-06-26T00:09:14;98401.59;;;17.58
11926;BMP180;6022;48.768;18.608;2023-06-26T00:11:49;98401.16;;;17.62
11926;BMP180;6022;48.768;18.608;2023-06-26T00:14:21;98393.41;;;17.72
11926;BMP180;6022;48.768;18.608;2023-06-26T00:16:53;98391.25;;;17.77
11926;BMP180;6022;48.768;18.608;2023-06-26T00:19:22;98396.63;;;17.83
11926;BMP180;6022;48.768;18.608;2023-06-26T00:21:50;98398.06;;;17.85
11926;BMP180;6022;48.768;18.608;2023-06-26T00:24:26;98392.31;;;17.74
11926;BMP180;6022;48.768;18.608;2023-06-26T00:26:56;98404.78;;;17.69
11926;BMP180;6022;48.768;18.608;2023-06-26T00:29:27;98404.25;;;17.66
11926;BMP180;6022;48.768;18.608;2023-06-26T00:31:57;98398.50;;;17.54
11926;BMP180;6022;48.768;18.608;2023-06-26T00:34:28;98407.31;;;17.42
11926;BMP180;6022;48.768;18.608;2023-06-26T00:37:03;98409.50;;;17.28
11926;BMP180;6022;48.768;18.608;2023-06-26T00:39:33;98404.53;;;17.17
11926;BMP180;6022;48.768;18.608;2023-06-26T00:42:05;98397.34;;;17.11
11926;BMP180;6022;48.768;18.608;2023-06-26T00:44:35;98397.06;;;17.14
11926;BMP180;6022;48.768;18.608;2023-06-26T00:47:05;98401.97;;;17.17
11926;BMP180;6022;48.768;18.608;2023-06-26T00:49:34;98403.56;;;17.09
11926;BMP180;6022;48.768;18.608;2023-06-26T00:52:02;98402.59;;;17.10
11926;BMP180;6022;48.768;18.608;2023-06-26T00:54:35;98396.28;;;16.95
11926;BMP180;6022;48.768;18.608;2023-06-26T00:57:06;98383.22;;;16.98
11926;BMP180;6022;48.768;18.608;2023-06-26T00:59:34;98387.66;;;16.96
11926;BMP180;6022;48.768;18.608;2023-06-26T01:02:05;98390.13;;;16.88
11926;BMP180;6022;48.768;18.608;2023-06-26T01:04:38;98389.69;;;16.83
11926;BMP180;6022;48.768;18.608;2023-06-26T01:07:08;98389.41;;;16.86
11926;BMP180;6022;48.768;18.608;2023-06-26T01:09:40;98390.25;;;16.87
11926;BMP180;6022;48.768;18.608;2023-06-26T01:12:11;98381.34;;;16.91
11926;BMP180;6022;48.768;18.608;2023-06-26T01:14:41;98383.22;;;16.89
11926;BMP180;6022;48.768;18.608;2023-06-26T01:17:13;98389.81;;;16.91
11926;BMP180;6022;48.768;18.608;2023-06-26T01:19:45;98386.31;;;16.92
11926;BMP180;6022;48.768;18.608;2023-06-26T01:22:22;98384.81;;;16.90
11926;BMP180;6022;48.768;18.608;2023-06-26T01:27:41;98384.16;;;16.88
11926;BMP180;6022;48.768;18.608;2023-06-26T01:30:12;98388.22;;;16.90
11926;BMP180;6022;48.768;18.608;2023-06-26T01:32:45;98388.59;;;16.86
11926;BMP180;6022;48.768;18.608;2023-06-26T01:35:17;98378.09;;;16.79
11926;BMP180;6022;48.768;18.608;2023-06-26T01:38:19;98387.00;;;16.75
11926;BMP180;6022;48.768;18.608;2023-06-26T01:40:53;98376.34;;;16.70
11926;BMP180;6022;48.768;18.608;2023-06-26T01:49:42;98376.22;;;16.53
11926;BMP180;6022;48.768;18.608;2023-06-26T01:52:43;98375.69;;;16.59
11926;BMP180;6022;48.768;18.608;2023-06-26T01:57:57;98357.34;;;16.45
11926;BMP180;6022;48.768;18.608;2023-06-26T02:00:28;98365.44;;;16.50
11926;BMP180;6022;48.768;18.608;2023-06-26T02:02:58;98363.81;;;16.49
11926;BMP180;6022;48.768;18.608;2023-06-26T02:05:26;98362.06;;;16.49
11926;BMP180;6022;48.768;18.608;2023-06-26T02:07:56;98358.97;;;16.46
11926;BMP180;6022;48.768;18.608;2023-06-26T02:10:24;98368.78;;;16.41
11926;BMP180;6022;48.768;18.608;2023-06-26T02:12:51;98360.44;;;16.39
11926;BMP180;6022;48.768;18.608;2023-06-26T02:15:19;98360.97;;;16.42
11926;BMP180;6022;48.768;18.608;2023-06-26T02:17:49;98361.66;;;16.35
11926;BMP180;6022;48.768;18.608;2023-06-26T02:20:17;98359.63;;;16.38
11926;BMP180;6022;48.768;18.608;2023-06-26T02:22:44;98367.31;;;16.29
11926;BMP180;6022;48.768;18.608;2023-06-26T02:25:12;98361.53;;;16.27
11926;BMP180;6022;48.768;18.608;2023-06-26T02:27:44;98369.72;;;16.21
11926;BMP180;6022;48.768;18.608;2023-06-26T02:30:14;98371.69;;;15.99
11926;BMP180;6022;48.768;18.608;2023-06-26T02:32:42;98366.81;;;15.96
11926;BMP180;6022;48.768;18.608;2023-06-26T02:35:09;98361.69;;;15.96
11926;BMP180;6022;48.768;18.608;2023-06-26T02:37:44;98373.16;;;16.01
11926;BMP180;6022;48.768;18.608;2023-06-26T02:40:17;98372.47;;;15.99
11926;BMP180;6022;48.768;18.608;2023-06-26T02:42:49;98371.56;;;16.00
11926;BMP180;6022;48.768;18.608;2023-06-26T02:45:16;98375.31;;;16.06
11926;BMP180;6022;48.768;18.608;2023-06-26T02:47:45;98377.06;;;16.05
11926;BMP180;6022;48.768;18.608;2023-06-26T02:50:18;98370.19;;;16.06
11926;BMP180;6022;48.768;18.608;2023-06-26T02:52:55;98367.63;;;16.06
11926;BMP180;6022;48.768;18.608;2023-06-26T02:55:23;98379.63;;;16.05
11926;BMP180;6022;48.768;18.608;2023-06-26T02:57:54;98371.16;;;16.05
11926;BMP180;6022;48.768;18.608;2023-06-26T03:00:25;98378.28;;;16.01
11926;BMP180;6022;48.768;18.608;2023-06-26T03:02:55;98378.69;;;16.06
11926;BMP180;6022;48.768;18.608;2023-06-26T03:05:25;98375.72;;;16.11
11926;BMP180;6022;48.768;18.608;2023-06-26T03:07:55;98376.53;;;16.11
11926;BMP180;6022;48.768;18.608;2023-06-26T03:10:22;98379.25;;;16.10
11926;BMP180;6022;48.768;18.608;2023-06-26T03:12:50;98385.41;;;16.07
11926;BMP180;6022;48.768;18.608;2023-06-26T03:15:20;98378.72;;;15.67
11926;BMP180;6022;48.768;18.608;2023-06-26T03:17:47;98397.97;;;15.71
11926;BMP180;6022;48.768;18.608;2023-06-26T03:20:18;98384.50;;;15.69
11926;BMP180;6022;48.768;18.608;2023-06-26T03:22:45;98385.19;;;15.71
11926;BMP180;6022;48.768;18.608;2023-06-26T03:25:13;98387.53;;;15.84
11926;BMP180;6022;48.768;18.608;2023-06-26T03:27:45;98390.47;;;15.79
11926;BMP180;6022;48.768;18.608;2023-06-26T03:30:15;98377.50;;;15.71
11926;BMP180;6022;48.768;18.608;2023-06-26T03:32:45;98380.19;;;15.70
11926;BMP180;6022;48.768;18.608;2023-06-26T03:35:15;98381.38;;;15.66
11926;BMP180;6022;48.768;18.608;2023-06-26T03:37:46;98381.09;;;15.89
11926;BMP180;6022;48.768;18.608;2023-06-26T03:40:15;98381.78;;;16.00
11926;BMP180;6022;48.768;18.608;2023-06-26T03:42:48;98379.81;;;16.32
11926;BMP180;6022;48.768;18.608;2023-06-26T03:45:19;98374.19;;;16.28
11926;BMP180;6022;48.768;18.608;2023-06-26T03:47:47;98371.09;;;16.53
11926;BMP180;6022;48.768;18.608;2023-06-26T03:50:19;98378.91;;;16.80
11926;BMP180;6022;48.768;18.608;2023-06-26T03:52:48;98382.44;;;17.52
11926;BMP180;6022;48.768;18.608;2023-06-26T03:55:20;98376.03;;;17.66
11926;BMP180;6022;48.768;18.608;2023-06-26T03:57:49;98388.38;;;18.16
11926;BMP180;6022;48.768;18.608;2023-06-26T04:00:27;98382.19;;;19.12
11926;BMP180;6022;48.768;18.608;2023-06-26T04:03:01;98383.06;;;19.46
11926;BMP180;6022;48.768;18.608;2023-06-26T04:05:37;98376.91;;;19.72
11926;BMP180;6022;48.768;18.608;2023-06-26T04:08:08;98377.94;;;19.79
11926;BMP180;6022;48.768;18.608;2023-06-26T04:10:56;98380.28;;;19.14
11926;BMP180;6022;48.768;18.608;2023-06-26T04:13:32;98382.75;;;18.98
11926;BMP180;6022;48.768;18.608;2023-06-26T04:16:05;98380.84;;;18.49
11926;BMP180;6022;48.768;18.608;2023-06-26T04:18:40;98385.75;;;18.42
11926;BMP180;6022;48.768;18.608;2023-06-26T04:21:15;98384.25;;;18.22
11926;BMP180;6022;48.768;18.608;2023-06-26T04:23:44;98381.41;;;18.08
11926;BMP180;6022;48.768;18.608;2023-06-26T04:26:18;98374.47;;;17.82
11926;BMP180;6022;48.768;18.608;2023-06-26T04:28:48;98387.41;;;17.63
11926;BMP180;6022;48.768;18.608;2023-06-26T04:31:21;98385.06;;;17.34
11926;BMP180;6022;48.768;18.608;2023-06-26T04:34:02;98378.66;;;17.47
11926;BMP180;6022;48.768;18.608;2023-06-26T04:36:29;98378.34;;;17.59
11926;BMP180;6022;48.768;18.608;2023-06-26T04:39:03;98383.50;;;17.86
11926;BMP180;6022;48.768;18.608;2023-06-26T05:24:55;98356.44;;;30.49
11926;BMP180;6022;48.768;18.608;2023-06-26T05:27:26;98365.88;;;30.50
11926;BMP180;6022;48.768;18.608;2023-06-26T05:29:54;98371.41;;;29.36
11926;BMP180;6022;48.768;18.608;2023-06-26T05:32:22;98364.94;;;29.98
11926;BMP180;6022;48.768;18.608;2023-06-26T05:34:53;98363.44;;;30.20
11926;BMP180;6022;48.768;18.608;2023-06-26T05:37:26;98365.44;;;30.53
11926;BMP180;6022;48.768;18.608;2023-06-26T05:39:58;98359.97;;;30.55
11926;BMP180;6022;48.768;18.608;2023-06-26T05:42:27;98363.63;;;30.07
11926;BMP180;6022;48.768;18.608;2023-06-26T05:44:58;98361.06;;;28.99
11926;BMP180;6022;48.768;18.608;2023-06-26T05:47:25;98364.84;;;29.27
11926;BMP180;6022;48.768;18.608;2023-06-26T05:49:56;98361.41;;;29.09
11926;BMP180;6022;48.768;18.608;2023-06-26T05:52:24;98364.47;;;29.66
11926;BMP180;6022;48.768;18.608;2023-06-26T05:54:52;98364.59;;;29.35
11926;BMP180;6022;48.768;18.608;2023-06-26T05:57:22;98364.38;;;31.47
11926;BMP180;6022;48.768;18.608;2023-06-26T06:00:05;98364.56;;;31.57
11926;BMP180;6022;48.768;18.608;2023-06-26T06:02:39;98355.59;;;30.20
11926;BMP180;6022;48.768;18.608;2023-06-26T06:05:07;98349.03;;;30.87
11926;BMP180;6022;48.768;18.608;2023-06-26T06:07:35;98353.94;;;32.96
11926;BMP180;6022;48.768;18.608;2023-06-26T06:10:04;98354.25;;;33.49
11926;BMP180;6022;48.768;18.608;2023-06-26T06:12:31;98351.00;;;32.49
11926;BMP180;6022;48.768;18.608;2023-06-26T06:14:59;98351.97;;;32.87
11926;BMP180;6022;48.768;18.608;2023-06-26T06:17:27;98350.09;;;33.53
11926;BMP180;6022;48.768;18.608;2023-06-26T06:19:55;98349.97;;;32.50
11926;BMP180;6022;48.768;18.608;2023-06-26T06:22:22;98360.22;;;31.85
11926;BMP180;6022;48.768;18.608;2023-06-26T06:24:51;98353.63;;;32.49
11926;BMP180;6022;48.768;18.608;2023-06-26T06:27:18;98357.44;;;32.30
11926;BMP180;6022;48.768;18.608;2023-06-26T06:29:46;98350.44;;;32.47
11926;BMP180;6022;48.768;18.608;2023-06-26T06:32:19;98357.38;;;31.75
11926;BMP180;6022;48.768;18.608;2023-06-26T06:34:50;98358.31;;;33.40
11926;BMP180;6022;48.768;18.608;2023-06-26T06:37:17;98351.56;;;34.29
11926;BMP180;6022;48.768;18.608;2023-06-26T06:39:45;98351.88;;;35.20
11926;BMP180;6022;48.768;18.608;2023-06-26T06:42:12;98357.00;;;35.73
11926;BMP180;6022;48.768;18.608;2023-06-26T06:44:39;98357.13;;;35.51
11926;BMP180;6022;48.768;18.608;2023-06-26T06:47:07;98351.41;;;35.23
11926;BMP180;6022;48.768;18.608;2023-06-26T06:49:34;98357.00;;;34.43
11926;BMP180;6022;48.768;18.608;2023-06-26T06:52:01;98355.44;;;34.73
11926;BMP180;6022;48.768;18.608;2023-06-26T06:54:51;98358.50;;;35.64
11926;BMP180;6022;48.768;18.608;2023-06-26T06:57:20;98354.22;;;34.81
11926;BMP180;6022;48.768;18.608;2023-06-26T06:59:48;98350.13;;;32.87
11926;BMP180;6022;48.768;18.608;2023-06-26T07:02:19;98352.19;;;33.93
11926;BMP180;6022;48.768;18.608;2023-06-26T07:04:46;98344.31;;;34.93
11926;BMP180;6022;48.768;18.608;2023-06-26T07:07:17;98352.84;;;34.47
11926;BMP180;6022;48.768;18.608;2023-06-26T07:09:45;98346.19;;;34.19
11926;BMP180;6022;48.768;18.608;2023-06-26T07:12:12;98352.44;;;34.13
11926;BMP180;6022;48.768;18.608;2023-06-26T07:14:39;98354.94;;;34.24
11926;BMP180;6022;48.768;18.608;2023-06-26T07:17:07;98347.50;;;33.57
11926;BMP180;6022;48.768;18.608;2023-06-26T07:19:35;98346.16;;;33.76
11926;BMP180;6022;48.768;18.608;2023-06-26T07:22:03;98340.84;;;33.71
11926;BMP180;6022;48.768;18.608;2023-06-26T07:24:31;98349.06;;;31.55
11926;BMP180;6022;48.768;18.608;2023-06-26T07:27:00;98346.09;;;32.69
11926;BMP180;6022;48.768;18.608;2023-06-26T07:29:27;98339.81;;;34.15
11926;BMP180;6022;48.768;18.608;2023-06-26T07:31:55;98337.31;;;34.03
11926;BMP180;6022;48.768;18.608;2023-06-26T07:34:22;98336.63;;;35.68
11926;BMP180;6022;48.768;18.608;2023-06-26T07:36:53;98332.78;;;35.40
11926;BMP180;6022;48.768;18.608;2023-06-26T07:39:21;98324.84;;;34.41
11926;BMP180;6022;48.768;18.608;2023-06-26T07:41:51;98330.78;;;34.58
11926;BMP180;6022;48.768;18.608;2023-06-26T07:44:19;98331.22;;;35.08
11926;BMP180;6022;48.768;18.608;2023-06-26T07:46:47;98337.25;;;35.39
11926;BMP180;6022;48.768;18.608;2023-06-26T07:49:15;98338.25;;;35.28
11926;BMP180;6022;48.768;18.608;2023-06-26T07:51:42;98336.56;;;35.53
11926;BMP180;6022;48.768;18.608;2023-06-26T07:54:10;98338.06;;;35.86
11926;BMP180;6022;48.768;18.608;2023-06-26T07:56:59;98335.75;;;35.17
11926;BMP180;6022;48.768;18.608;2023-06-26T07:59:30;98324.97;;;33.83
11926;BMP180;6022;48.768;18.608;2023-06-26T08:01:59;98331.72;;;33.57
11926;BMP180;6022;48.768;18.608;2023-06-26T08:04:28;98333.75;;;33.72
11926;BMP180;6022;48.768;18.608;2023-06-26T08:07:05;98327.59;;;34.30
11926;BMP180;6022;48.768;18.608;2023-06-26T08:09:33;98327.94;;;33.16
11926;BMP180;6022;48.768;18.608;2023-06-26T08:12:00;98335.63;;;33.76
11926;BMP180;6022;48.768;18.608;2023-06-26T08:14:28;98339.03;;;33.02
11926;BMP180;6022;48.768;18.608;2023-06-26T08:16:55;98332.19;;;33.17
11926;BMP180;6022;48.768;18.608;2023-06-26T08:19:22;98335.75;;;33.44
11926;BMP180;6022;48.768;18.608;2023-06-26T08:21:49;98341.69;;;32.85
11926;BMP180;6022;48.768;18.608;2023-06-26T08:24:16;98334.53;;;33.18
11926;BMP180;6022;48.768;18.608;2023-06-26T08:26:46;98338.34;;;33.60
11926;BMP180;6022;48.768;18.608;2023-06-26T08:29:16;98330.47;;;34.50
11926;BMP180;6022;48.768;18.608;2023-06-26T08:31:44;98339.47;;;34.54
11926;BMP180;6022;48.768;18.608;2023-06-26T08:34:11;98335.03;;;34.12
11926;BMP180;6022;48.768;18.608;2023-06-26T08:36:42;98325.19;;;34.02
11926;BMP180;6022;48.768;18.608;2023-06-26T08:39:22;98325.59;;;34.37
11926;BMP180;6022;48.768;18.608;2023-06-26T08:41:54;98329.06;;;35.00
11926;BMP180;6022;48.768;18.608;2023-06-26T08:44:24;98331.66;;;34.37
11926;BMP180;6022;48.768;18.608;2023-06-26T08:46:52;98319.03;;;34.39
11926;BMP180;6022;48.768;18.608;2023-06-26T08:49:42;98315.84;;;33.90
11926;BMP180;6022;48.768;18.608;2023-06-26T08:52:28;98318.75;;;34.15
11926;BMP180;6022;48.768;18.608;2023-06-26T08:54:59;98318.13;;;36.19
11926;BMP180;6022;48.768;18.608;2023-06-26T08:57:30;98321.09;;;35.77
11926;BMP180;6022;48.768;18.608;2023-06-26T09:00:05;98310.28;;;35.27
11926;BMP180;6022;48.768;18.608;2023-06-26T09:02:36;98313.38;;;35.19
11926;BMP180;6022;48.768;18.608;2023-06-26T09:05:07;98316.75;;;35.56
11926;BMP180;6022;48.768;18.608;2023-06-26T09:07:37;98314.91;;;34.48
11926;BMP180;6022;48.768;18.608;2023-06-26T09:10:09;98315.66;;;33.38
11926;BMP180;6022;48.768;18.608;2023-06-26T09:12:37;98316.19;;;32.86
11926;BMP180;6022;48.768;18.608;2023-06-26T09:15:08;98311.41;;;33.74
11926;BMP180;6022;48.768;18.608;2023-06-26T09:36:38;98318.34;;;31.67
11926;BMP180;6022;48.768;18.608;2023-06-26T09:39:18;98318.03;;;32.85
11926;BMP180;6022;48.768;18.608;2023-06-26T09:42:00;98312.06;;;32.46
11926;BMP180;6022;48.768;18.608;2023-06-26T09:45:02;98313.59;;;32.58
11926;BMP180;6022;48.768;18.608;2023-06-26T09:48:00;98313.16;;;33.85
11926;BMP180;6022;48.768;18.608;2023-06-26T09:50:32;98313.13;;;34.59
11926;BMP180;6022;48.768;18.608;2023-06-26T09:53:11;98307.41;;;35.29
11926;BMP180;6022;48.768;18.608;2023-06-26T09:55:45;98308.84;;;34.00
11926;BMP180;6022;48.768;18.608;2023-06-26T09:58:17;98304.53;;;34.37
11926;BMP180;6022;48.768;18.608;2023-06-26T10:00:45;98294.34;;;34.24
11926;BMP180;6022;48.768;18.608;2023-06-26T10:03:22;98304.50;;;35.30
11926;BMP180;6022;48.768;18.608;2023-06-26T10:05:53;98303.22;;;35.88
11926;BMP180;6022;48.768;18.608;2023-06-26T10:08:21;98300.25;;;35.80
11926;BMP180;6022;48.768;18.608;2023-06-26T10:10:49;98304.84;;;36.09
11926;BMP180;6022;48.768;18.608;2023-06-26T10:13:32;98305.31;;;35.91
11926;BMP180;6022;48.768;18.608;2023-06-26T10:16:01;98299.72;;;34.60
11926;BMP180;6022;48.768;18.608;2023-06-26T10:18:32;98303.44;;;34.12
11926;BMP180;6022;48.768;18.608;2023-06-26T10:21:08;98292.78;;;34.02
11926;BMP180;6022;48.768;18.608;2023-06-26T10:23:56;98288.97;;;32.64
11926;BMP180;6022;48.768;18.608;2023-06-26T10:26:28;98299.97;;;31.90
11926;BMP180;6022;48.768;18.608;2023-06-26T10:29:00;98287.16;;;31.82
11926;BMP180;6022;48.768;18.608;2023-06-26T10:31:32;98294.16;;;32.76
11926;BMP180;6022;48.768;18.608;2023-06-26T10:34:00;98287.31;;;33.07
11926;BMP180;6022;48.768;18.608;2023-06-26T10:36:31;98285.72;;;32.57
11926;BMP180;6022;48.768;18.608;2023-06-26T10:39:07;98273.28;;;32.69
11926;BMP180;6022;48.768;18.608;2023-06-26T10:41:41;98280.22;;;33.83
11926;BMP180;6022;48.768;18.608;2023-06-26T10:44:43;98281.91;;;34.41
11926;BMP180;6022;48.768;18.608;2023-06-26T10:47:32;98277.25;;;34.27
11926;BMP180;6022;48.768;18.608;2023-06-26T10:53:24;98275.72;;;31.60
11926;BMP180;6022;48.768;18.608;2023-06-26T10:56:00;98266.34;;;30.50
11926;BMP180;6022;48.768;18.608;2023-06-26T10:58:40;98266.34;;;30.50
11926;BMP180;6022;48.768;18.608;2023-06-26T11:01:18;98262.72;;;30.51
11926;BMP180;6022;48.768;18.608;2023-06-26T11:04:12;98266.06;;;31.38
11926;BMP180;6022;48.768;18.608;2023-06-26T11:07:15;98258.88;;;31.95
11926;BMP180;6022;48.768;18.608;2023-06-26T11:12:41;98265.44;;;32.25
11926;BMP180;6022;48.768;18.608;2023-06-26T11:15:18;98265.97;;;33.04
11926;BMP180;6022;48.768;18.608;2023-06-26T11:17:47;98263.53;;;31.82
11926;BMP180;6022;48.768;18.608;2023-06-26T11:20:16;98256.13;;;32.34
11926;BMP180;6022;48.768;18.608;2023-06-26T11:22:44;98258.28;;;31.82
11926;BMP180;6022;48.768;18.608;2023-06-26T11:25:12;98254.97;;;32.58
11926;BMP180;6022;48.768;18.608;2023-06-26T11:27:45;98255.38;;;32.82
11926;BMP180;6022;48.768;18.608;2023-06-26T11:30:24;98254.69;;;32.87
11926;BMP180;6022;48.768;18.608;2023-06-26T11:33:06;98255.47;;;33.04
11926;BMP180;6022;48.768;18.608;2023-06-26T11:35:34;98250.19;;;33.62
11926;BMP180;6022;48.768;18.608;2023-06-26T11:38:08;98249.47;;;33.88
11926;BMP180;6022;48.768;18.608;2023-06-26T11:40:36;98249.25;;;33.31
11926;BMP180;6022;48.768;18.608;2023-06-26T11:43:04;98249.25;;;32.93
11926;BMP180;6022;48.768;18.608;2023-06-26T11:45:32;98253.41;;;31.23
11926;BMP180;6022;48.768;18.608;2023-06-26T11:48:00;98248.06;;;31.19
11926;BMP180;6022;48.768;18.608;2023-06-26T11:50:29;98258.81;;;30.83
11926;BMP180;6022;48.768;18.608;2023-06-26T11:52:59;98249.31;;;31.16
11926;BMP180;6022;48.768;18.608;2023-06-26T11:55:41;98239.41;;;31.07
11926;BMP180;6022;48.768;18.608;2023-06-26T11:58:10;98238.16;;;31.71
11926;BMP180;6022;48.768;18.608;2023-06-26T12:00:42;98238.13;;;31.43
11926;BMP180;6022;48.768;18.608;2023-06-26T12:03:10;98239.84;;;31.77
11926;BMP180;6022;48.768;18.608;2023-06-26T12:05:40;98240.72;;;31.94
11926;BMP180;6022;48.768;18.608;2023-06-26T12:08:08;98237.19;;;32.32
11926;BMP180;6022;48.768;18.608;2023-06-26T12:10:35;98238.75;;;32.44
11926;BMP180;6022;48.768;18.608;2023-06-26T12:13:03;98238.69;;;31.84
11926;BMP180;6022;48.768;18.608;2023-06-26T12:15:30;98241.63;;;32.15
11926;BMP180;6022;48.768;18.608;2023-06-26T12:17:58;98235.91;;;32.18
11926;BMP180;6022;48.768;18.608;2023-06-26T12:20:29;98233.38;;;31.68
11926;BMP180;6022;48.768;18.608;2023-06-26T12:22:59;98229.94;;;32.23
11926;BMP180;6022;48.768;18.608;2023-06-26T12:25:26;98234.09;;;32.68
11926;BMP180;6022;48.768;18.608;2023-06-26T12:27:53;98237.13;;;32.27
11926;BMP180;6022;48.768;18.608;2023-06-26T12:30:21;98227.03;;;31.92
11926;BMP180;6022;48.768;18.608;2023-06-26T12:32:48;98222.50;;;31.76
11926;BMP180;6022;48.768;18.608;2023-06-26T12:35:16;98227.16;;;31.85
11926;BMP180;6022;48.768;18.608;2023-06-26T12:37:44;98220.75;;;31.81
11926;BMP180;6022;48.768;18.608;2023-06-26T12:40:18;98221.28;;;31.95
11926;BMP180;6022;48.768;18.608;2023-06-26T12:42:52;98223.47;;;31.98
11926;BMP180;6022;48.768;18.608;2023-06-26T12:45:20;98222.84;;;31.40
11926;BMP180;6022;48.768;18.608;2023-06-26T12:47:50;98229.16;;;31.05
11926;BMP180;6022;48.768;18.608;2023-06-26T12:50:17;98228.69;;;30.51
11926;BMP180;6022;48.768;18.608;2023-06-26T12:52:44;98220.81;;;30.51
11926;BMP180;6022;48.768;18.608;2023-06-26T12:55:12;98227.09;;;30.84
11926;BMP180;6022;48.768;18.608;2023-06-26T12:57:39;98220.13;;;31.35
11926;BMP180;6022;48.768;18.608;2023-06-26T13:00:07;98212.47;;;31.73
11926;BMP180;6022;48.768;18.608;2023-06-26T13:02:36;98208.88;;;31.90
11926;BMP180;6022;48.768;18.608;2023-06-26T13:05:04;98208.41;;;31.93
11926;BMP180;6022;48.768;18.608;2023-06-26T13:07:31;98213.19;;;31.96
11926;BMP180;6022;48.768;18.608;2023-06-26T13:09:59;98215.03;;;31.96
11926;BMP180;6022;48.768;18.608;2023-06-26T13:12:26;98209.84;;;31.84
11926;BMP180;6022;48.768;18.608;2023-06-26T13:14:53;98209.69;;;31.79
11926;BMP180;6022;48.768;18.608;2023-06-26T13:17:21;98199.03;;;31.69
11926;BMP180;6022;48.768;18.608;2023-06-26T13:19:48;98201.50;;;31.76
11926;BMP180;6022;48.768;18.608;2023-06-26T13:22:16;98205.91;;;31.59
11926;BMP180;6022;48.768;18.608;2023-06-26T13:24:46;98206.13;;;31.69
11926;BMP180;6022;48.768;18.608;2023-06-26T13:27:13;98202.94;;;31.56
11926;BMP180;6022;48.768;18.608;2023-06-26T13:29:41;98202.97;;;31.05
11926;BMP180;6022;48.768;18.608;2023-06-26T13:32:08;98201.72;;;30.96
11926;BMP180;6022;48.768;18.608;2023-06-26T13:34:35;98201.78;;;31.24
11926;BMP180;6022;48.768;18.608;2023-06-26T13:37:05;98208.25;;;31.22
11926;BMP180;6022;48.768;18.608;2023-06-26T13:39:33;98197.13;;;31.15
11926;BMP180;6022;48.768;18.608;2023-06-26T13:42:02;98191.31;;;30.79
11926;BMP180;6022;48.768;18.608;2023-06-26T13:44:30;98197.81;;;30.76
11926;BMP180;6022;48.768;18.608;2023-06-26T13:47:13;98190.44;;;30.96
11926;BMP180;6022;48.768;18.608;2023-06-26T13:49:41;98192.16;;;30.79
11926;BMP180;6022;48.768;18.608;2023-06-26T13:52:08;98186.19;;;30.72
11926;BMP180;6022;48.768;18.608;2023-06-26T13:54:39;98193.59;;;30.52
11926;BMP180;6022;48.768;18.608;2023-06-26T13:57:08;98190.06;;;30.58
11926;BMP180;6022;48.768;18.608;2023-06-26T13:59:39;98192.22;;;30.27
11926;BMP180;6022;48.768;18.608;2023-06-26T14:02:09;98182.78;;;29.68
11926;BMP180;6022;48.768;18.608;2023-06-26T14:04:41;98182.97;;;29.84
11926;BMP180;6022;48.768;18.608;2023-06-26T14:07:12;98190.06;;;29.95
11926;BMP180;6022;48.768;18.608;2023-06-26T14:09:39;98182.25;;;30.07
11926;BMP180;6022;48.768;18.608;2023-06-26T14:12:08;98183.53;;;30.15
11926;BMP180;6022;48.768;18.608;2023-06-26T14:14:37;98184.41;;;30.09
11926;BMP180;6022;48.768;18.608;2023-06-26T14:17:07;98174.75;;;30.10
11926;BMP180;6022;48.768;18.608;2023-06-26T14:19:40;98183.00;;;29.96
11926;BMP180;6022;48.768;18.608;2023-06-26T14:22:08;98175.59;;;29.64
11926;BMP180;6022;48.768;18.608;2023-06-26T14:24:35;98183.41;;;29.81
11926;BMP180;6022;48.768;18.608;2023-06-26T14:27:04;98185.16;;;29.87
11926;BMP180;6022;48.768;18.608;2023-06-26T14:29:31;98190.72;;;29.91
11926;BMP180;6022;48.768;18.608;2023-06-26T14:31:59;98176.09;;;29.72
11926;BMP180;6022;48.768;18.608;2023-06-26T14:34:27;98181.84;;;29.63
11926;BMP180;6022;48.768;18.608;2023-06-26T14:37:00;98186.63;;;29.66
11926;BMP180;6022;48.768;18.608;2023-06-26T14:39:27;98173.06;;;29.57
11926;BMP180;6022;48.768;18.608;2023-06-26T14:41:55;98170.06;;;29.42
11926;BMP180;6022;48.768;18.608;2023-06-26T14:44:23;98171.28;;;29.40
11926;BMP180;6022;48.768;18.608;2023-06-26T14:46:53;98167.31;;;29.37
11926;BMP180;6022;48.768;18.608;2023-06-26T14:49:21;98159.81;;;29.41
11926;BMP180;6022;48.768;18.608;2023-06-26T14:51:48;98161.78;;;28.92
11926;BMP180;6022;48.768;18.608;2023-06-26T14:54:23;98166.22;;;29.09
11926;BMP180;6022;48.768;18.608;2023-06-26T14:56:51;98165.34;;;28.97
11926;BMP180;6022;48.768;18.608;2023-06-26T14:59:20;98164.25;;;28.87
11926;BMP180;6022;48.768;18.608;2023-06-26T15:01:51;98159.00;;;28.69
11926;BMP180;6022;48.768;18.608;2023-06-26T15:04:18;98158.38;;;28.74
11926;BMP180;6022;48.768;18.608;2023-06-26T15:07:03;98150.97;;;28.89
11926;BMP180;6022;48.768;18.608;2023-06-26T15:09:35;98154.16;;;28.91
11926;BMP180;6022;48.768;18.608;2023-06-26T15:12:10;98146.75;;;28.70
11926;BMP180;6022;48.768;18.608;2023-06-26T15:14:50;98145.16;;;28.69
11926;BMP180;6022;48.768;18.608;2023-06-26T15:17:21;98146.38;;;28.66
11926;BMP180;6022;48.768;18.608;2023-06-26T15:19:48;98152.94;;;28.75
11926;BMP180;6022;48.768;18.608;2023-06-26T15:22:18;98150.66;;;28.61
11926;BMP180;6022;48.768;18.608;2023-06-26T15:24:51;98135.44;;;28.76
11926;BMP180;6022;48.768;18.608;2023-06-26T15:27:19;98134.31;;;28.48
11926;BMP180;6022;48.768;18.608;2023-06-26T15:29:50;98133.84;;;28.75
11926;BMP180;6022;48.768;18.608;2023-06-26T15:32:18;98138.41;;;28.79
11926;BMP180;6022;48.768;18.608;2023-06-26T15:34:47;98133.56;;;28.83
11926;BMP180;6022;48.768;18.608;2023-06-26T15:37:16;98130.16;;;28.64
11926;BMP180;6022;48.768;18.608;2023-06-26T15:39:43;98134.78;;;28.62
11926;BMP180;6022;48.768;18.608;2023-06-26T15:45:04;98122.47;;;28.45
11926;BMP180;6022;48.768;18.608;2023-06-26T15:47:42;98129.34;;;28.64
11926;BMP180;6022;48.768;18.608;2023-06-26T15:50:10;98124.78;;;28.77
11926;BMP180;6022;48.768;18.608;2023-06-26T15:52:39;98122.31;;;28.58
11926;BMP180;6022;48.768;18.608;2023-06-26T15:55:07;98122.00;;;28.54